sensor_id;sensor_type;location;lat;lon;timestamp;pressure;altitude;pressure_sealevel;temperature;humidity
48652;BME280;34442;52.362;-1.302;2024-02-21T00:01:47;100444.19;;;12.24;100.00
48652;BME280;34442;52.362;-1.302;2024-02-21T00:04:12;100441.72;;;12.23;100.00
48652;BME280;34442;52.362;-1.302;2024-02-21T00:06:38;100454.00;;;12.05;100.00
48652;BME280;34442;52.362;-1.302;2024-02-21T00:09:03;100449.41;;;12.19;100.00
48652;BME280;34442;52.362;-1.302;2024-02-21T00:11:28;100444.19;;;12.24;100.00
48652;BME280;34442;52.362;-1.302;2024-02-21T00:13:54;100443.84;;;12.14;100.00
48652;BME280;34442;52.362;-1.302;2024-02-21T00:16:19;100436.59;;;12.08;100.00
48652;BME280;34442;52.362;-1.302;2024-02-21T00:18:45;100425.34;;;12.17;100.00
48652;BME280;34442;52.362;-1.302;2024-02-21T00:21:10;100421.06;;;12.10;100.00
48652;BME280;34442;52.362;-1.302;2024-02-21T00:23:40;100421.16;;;12.22;100.00
48652;BME280;34442;52.362;-1.302;2024-02-21T00:26:06;100422.66;;;12.17;100.00
48652;BME280;34442;52.362;-1.302;2024-02-21T00:28:32;100414.91;;;12.34;100.00
48652;BME280;34442;52.362;-1.302;2024-02-21T00:30:58;100407.44;;;12.30;100.00
48652;BME280;34442;52.362;-1.302;2024-02-21T00:33:23;100400.66;;;12.21;100.00
48652;BME280;34442;52.362;-1.302;2024-02-21T00:35:49;100396.53;;;12.18;100.00
48652;BME280;34442;52.362;-1.302;2024-02-21T00:38:14;100394.88;;;12.17;100.00
48652;BME280;34442;52.362;-1.302;2024-02-21T00:40:39;100401.09;;;12.17;100.00
48652;BME280;34442;52.362;-1.302;2024-02-21T00:43:05;100406.53;;;12.11;100.00
48652;BME280;34442;52.362;-1.302;2024-02-21T00:45:30;100406.69;;;12.16;100.00
48652;BME280;34442;52.362;-1.302;2024-02-21T00:47:56;100396.81;;;12.10;100.00
48652;BME280;34442;52.362;-1.302;2024-02-21T00:50:21;100391.19;;;12.11;100.00
48652;BME280;34442;52.362;-1.302;2024-02-21T00:52:46;100399.69;;;12.08;100.00
48652;BME280;34442;52.362;-1.302;2024-02-21T00:55:12;100400.34;;;12.04;100.00
48652;BME280;34442;52.362;-1.302;2024-02-21T00:57:37;100396.25;;;11.30;100.00
48652;BME280;34442;52.362;-1.302;2024-02-21T01:00:03;100411.16;;;11.26;100.00
48652;BME280;34442;52.362;-1.302;2024-02-21T01:02:29;100391.91;;;11.94;100.00
48652;BME280;34442;52.362;-1.302;2024-02-21T01:04:57;100384.16;;;12.10;100.00
48652;BME280;34442;52.362;-1.302;2024-02-21T01:07:22;100381.22;;;12.12;100.00
48652;BME280;34442;52.362;-1.302;2024-02-21T01:09:48;100380.19;;;10.97;100.00
48652;BME280;34442;52.362;-1.302;2024-02-21T01:12:13;100378.75;;;10.54;100.00
48652;BME280;34442;52.362;-1.302;2024-02-21T01:14:39;100362.00;;;10.46;100.00
48652;BME280;34442;52.362;-1.302;2024-02-21T01:17:04;100367.78;;;10.42;100.00
48652;BME280;34442;52.362;-1.302;2024-02-21T01:19:31;100353.47;;;10.22;100.00
48652;BME280;34442;52.362;-1.302;2024-02-21T01:21:56;100355.94;;;10.24;100.00
48652;BME280;34442;52.362;-1.302;2024-02-21T01:24:22;100335.28;;;10.17;100.00
48652;BME280;34442;52.362;-1.302;2024-02-21T01:26:47;100333.22;;;10.13;100.00
48652;BME280;34442;52.362;-1.302;2024-02-21T01:29:12;100322.47;;;10.13;100.00
48652;BME280;34442;52.362;-1.302;2024-02-21T01:31:38;100317.09;;;10.06;100.00
48652;BME280;34442;52.362;-1.302;2024-02-21T01:34:03;100309.88;;;10.13;100.00
48652;BME280;34442;52.362;-1.302;2024-02-21T01:36:29;100300.56;;;10.03;100.00
48652;BME280;34442;52.362;-1.302;2024-02-21T01:38:54;100295.38;;;10.08;100.00
48652;BME280;34442;52.362;-1.302;2024-02-21T01:41:19;100298.06;;;10.08;100.00
48652;BME280;34442;52.362;-1.302;2024-02-21T01:43:45;100291.88;;;10.01;100.00
48652;BME280;34442;52.362;-1.302;2024-02-21T01:46:11;100278.47;;;10.01;100.00
48652;BME280;34442;52.362;-1.302;2024-02-21T01:48:36;100261.53;;;10.00;100.00
48652;BME280;34442;52.362;-1.302;2024-02-21T01:51:03;100259.44;;;10.02;100.00
48652;BME280;34442;52.362;-1.302;2024-02-21T01:53:30;100246.00;;;9.95;100.00
48652;BME280;34442;52.362;-1.302;2024-02-21T01:55:58;100236.94;;;10.36;100.00
48652;BME280;34442;52.362;-1.302;2024-02-21T01:58:24;100223.19;;;10.84;100.00
48652;BME280;34442;52.362;-1.302;2024-02-21T02:00:50;100229.19;;;10.86;100.00
48652;BME280;34442;52.362;-1.302;2024-02-21T02:03:15;100227.72;;;10.90;100.00
48652;BME280;34442;52.362;-1.302;2024-02-21T02:05:48;100217.72;;;11.04;100.00
48652;BME280;34442;52.362;-1.302;2024-02-21T02:08:18;100208.25;;;10.95;100.00
48652;BME280;34442;52.362;-1.302;2024-02-21T02:10:45;100206.00;;;10.85;100.00
48652;BME280;34442;52.362;-1.302;2024-02-21T02:13:11;100206.38;;;10.96;100.00
48652;BME280;34442;52.362;-1.302;2024-02-21T02:15:44;100204.28;;;10.98;100.00
48652;BME280;34442;52.362;-1.302;2024-02-21T02:18:10;100212.19;;;10.92;100.00
48652;BME280;34442;52.362;-1.302;2024-02-21T02:20:36;100212.78;;;11.01;100.00
48652;BME280;34442;52.362;-1.302;2024-02-21T02:23:07;100203.88;;;11.01;100.00
48652;BME280;34442;52.362;-1.302;2024-02-21T02:25:34;100209.69;;;10.98;100.00
48652;BME280;34442;52.362;-1.302;2024-02-21T02:27:59;100209.09;;;10.89;100.00
48652;BME280;34442;52.362;-1.302;2024-02-21T02:30:25;100197.50;;;10.95;100.00
48652;BME280;34442;52.362;-1.302;2024-02-21T02:32:50;100189.63;;;10.93;100.00
48652;BME280;34442;52.362;-1.302;2024-02-21T02:35:15;100187.13;;;10.99;100.00
48652;BME280;34442;52.362;-1.302;2024-02-21T02:37:48;100184.56;;;11.10;100.00
48652;BME280;34442;52.362;-1.302;2024-02-21T02:40:13;100182.97;;;11.03;100.00
48652;BME280;34442;52.362;-1.302;2024-02-21T02:42:38;100171.19;;;11.04;100.00
48652;BME280;34442;52.362;-1.302;2024-02-21T02:45:04;100150.31;;;10.92;100.00
48652;BME280;34442;52.362;-1.302;2024-02-21T02:47:30;100151.19;;;10.86;100.00
48652;BME280;34442;52.362;-1.302;2024-02-21T02:49:55;100137.06;;;10.98;100.00
48652;BME280;34442;52.362;-1.302;2024-02-21T02:52:20;100131.06;;;10.96;100.00
48652;BME280;34442;52.362;-1.302;2024-02-21T02:54:46;100123.00;;;10.96;100.00
48652;BME280;34442;52.362;-1.302;2024-02-21T02:57:17;100113.91;;;10.90;100.00
48652;BME280;34442;52.362;-1.302;2024-02-21T02:59:42;100109.19;;;10.85;100.00
48652;BME280;34442;52.362;-1.302;2024-02-21T03:02:12;100102.56;;;10.88;100.00
48652;BME280;34442;52.362;-1.302;2024-02-21T03:04:39;100094.09;;;10.84;100.00
48652;BME280;34442;52.362;-1.302;2024-02-21T03:07:05;100089.50;;;10.91;100.00
48652;BME280;34442;52.362;-1.302;2024-02-21T03:09:30;100085.78;;;10.92;100.00
48652;BME280;34442;52.362;-1.302;2024-02-21T03:11:55;100080.97;;;11.01;100.00
48652;BME280;34442;52.362;-1.302;2024-02-21T03:14:27;100074.38;;;10.97;100.00
48652;BME280;34442;52.362;-1.302;2024-02-21T03:16:53;100072.97;;;10.95;100.00
48652;BME280;34442;52.362;-1.302;2024-02-21T03:19:18;100063.88;;;10.89;100.00
48652;BME280;34442;52.362;-1.302;2024-02-21T03:21:43;100058.28;;;10.90;100.00
48652;BME280;34442;52.362;-1.302;2024-02-21T03:24:09;100055.59;;;10.90;100.00
48652;BME280;34442;52.362;-1.302;2024-02-21T03:26:34;100047.41;;;10.79;100.00
48652;BME280;34442;52.362;-1.302;2024-02-21T03:29:00;100046.91;;;10.88;100.00
48652;BME280;34442;52.362;-1.302;2024-02-21T03:31:25;100037.22;;;10.87;100.00
48652;BME280;34442;52.362;-1.302;2024-02-21T03:33:50;100039.84;;;10.94;100.00
48652;BME280;34442;52.362;-1.302;2024-02-21T03:36:16;100024.88;;;11.05;100.00
48652;BME280;34442;52.362;-1.302;2024-02-21T03:38:41;100027.53;;;11.11;100.00
48652;BME280;34442;52.362;-1.302;2024-02-21T03:41:07;100021.34;;;11.04;100.00
48652;BME280;34442;52.362;-1.302;2024-02-21T03:43:32;100012.06;;;11.00;100.00
48652;BME280;34442;52.362;-1.302;2024-02-21T03:45:57;100008.88;;;10.85;100.00
48652;BME280;34442;52.362;-1.302;2024-02-21T03:48:23;99989.78;;;10.93;100.00
48652;BME280;34442;52.362;-1.302;2024-02-21T03:50:48;99991.88;;;10.91;100.00
48652;BME280;34442;52.362;-1.302;2024-02-21T03:53:14;99990.16;;;10.97;100.00
48652;BME280;34442;52.362;-1.302;2024-02-21T03:55:39;99986.09;;;10.87;100.00
48652;BME280;34442;52.362;-1.302;2024-02-21T03:58:04;99979.56;;;10.77;100.00
48652;BME280;34442;52.362;-1.302;2024-02-21T04:00:30;99968.81;;;10.77;100.00
48652;BME280;34442;52.362;-1.302;2024-02-21T04:02:55;99970.56;;;10.89;100.00
48652;BME280;34442;52.362;-1.302;2024-02-21T04:05:21;99970.41;;;10.84;100.00
48652;BME280;34442;52.362;-1.302;2024-02-21T04:07:46;99965.47;;;10.81;100.00
48652;BME280;34442;52.362;-1.302;2024-02-21T04:10:12;99960.06;;;10.81;100.00
48652;BME280;34442;52.362;-1.302;2024-02-21T04:12:37;99956.84;;;10.73;100.00
48652;BME280;34442;52.362;-1.302;2024-02-21T04:15:04;99944.28;;;10.66;100.00
48652;BME280;34442;52.362;-1.302;2024-02-21T04:17:29;99947.78;;;10.67;100.00
48652;BME280;34442;52.362;-1.302;2024-02-21T04:20:04;99938.53;;;10.56;100.00
48652;BME280;34442;52.362;-1.302;2024-02-21T04:22:34;99928.97;;;10.67;100.00
48652;BME280;34442;52.362;-1.302;2024-02-21T04:25:00;99917.59;;;10.65;100.00
48652;BME280;34442;52.362;-1.302;2024-02-21T04:27:26;99906.03;;;10.64;100.00
48652;BME280;34442;52.362;-1.302;2024-02-21T04:29:52;99886.88;;;10.54;100.00
48652;BME280;34442;52.362;-1.302;2024-02-21T04:32:18;99878.56;;;10.62;100.00
48652;BME280;34442;52.362;-1.302;2024-02-21T04:34:43;99888.66;;;10.67;100.00
48652;BME280;34442;52.362;-1.302;2024-02-21T04:37:08;99888.28;;;10.57;100.00
48652;BME280;34442;52.362;-1.302;2024-02-21T04:39:34;99877.16;;;10.53;100.00
48652;BME280;34442;52.362;-1.302;2024-02-21T04:41:59;99881.91;;;10.58;100.00
48652;BME280;34442;52.362;-1.302;2024-02-21T04:44:24;99889.25;;;10.69;100.00
48652;BME280;34442;52.362;-1.302;2024-02-21T04:46:50;99893.25;;;10.60;100.00
48652;BME280;34442;52.362;-1.302;2024-02-21T04:49:15;99890.72;;;10.65;100.00
48652;BME280;34442;52.362;-1.302;2024-02-21T04:51:41;99880.84;;;10.59;100.00
48652;BME280;34442;52.362;-1.302;2024-02-21T04:54:06;99870.75;;;10.54;100.00
48652;BME280;34442;52.362;-1.302;2024-02-21T04:56:31;99868.94;;;10.48;100.00
48652;BME280;34442;52.362;-1.302;2024-02-21T04:58:57;99857.38;;;10.48;100.00
48652;BME280;34442;52.362;-1.302;2024-02-21T05:01:22;99839.38;;;10.48;100.00
48652;BME280;34442;52.362;-1.302;2024-02-21T05:03:47;99826.66;;;10.62;100.00
48652;BME280;34442;52.362;-1.302;2024-02-21T05:06:13;99826.16;;;10.47;100.00
48652;BME280;34442;52.362;-1.302;2024-02-21T05:08:40;99812.34;;;10.43;100.00
48652;BME280;34442;52.362;-1.302;2024-02-21T05:11:05;99799.13;;;10.41;100.00
48652;BME280;34442;52.362;-1.302;2024-02-21T05:13:30;99790.03;;;10.42;100.00
48652;BME280;34442;52.362;-1.302;2024-02-21T05:15:56;99776.16;;;10.46;100.00
48652;BME280;34442;52.362;-1.302;2024-02-21T05:18:21;99777.72;;;10.53;100.00
48652;BME280;34442;52.362;-1.302;2024-02-21T05:20:47;99774.22;;;10.53;100.00
48652;BME280;34442;52.362;-1.302;2024-02-21T05:23:12;99771.44;;;10.41;100.00
48652;BME280;34442;52.362;-1.302;2024-02-21T05:25:37;99763.53;;;10.46;100.00
48652;BME280;34442;52.362;-1.302;2024-02-21T05:28:03;99757.94;;;10.48;100.00
48652;BME280;34442;52.362;-1.302;2024-02-21T05:30:31;99751.34;;;10.43;100.00
48652;BME280;34442;52.362;-1.302;2024-02-21T05:32:56;99748.28;;;10.40;100.00
48652;BME280;34442;52.362;-1.302;2024-02-21T05:35:28;99735.09;;;10.38;100.00
48652;BME280;34442;52.362;-1.302;2024-02-21T05:37:54;99721.28;;;10.35;100.00
48652;BME280;34442;52.362;-1.302;2024-02-21T05:40:19;99714.53;;;10.26;100.00
48652;BME280;34442;52.362;-1.302;2024-02-21T05:42:45;99708.28;;;10.32;100.00
48652;BME280;34442;52.362;-1.302;2024-02-21T05:45:10;99703.94;;;10.31;100.00
48652;BME280;34442;52.362;-1.302;2024-02-21T05:47:35;99707.44;;;10.31;100.00
48652;BME280;34442;52.362;-1.302;2024-02-21T05:50:01;99693.59;;;10.34;100.00
48652;BME280;34442;52.362;-1.302;2024-02-21T05:52:26;99682.03;;;10.34;100.00
48652;BME280;34442;52.362;-1.302;2024-02-21T05:54:52;99668.88;;;10.26;100.00
48652;BME280;34442;52.362;-1.302;2024-02-21T05:57:18;99672.69;;;10.36;100.00
48652;BME280;34442;52.362;-1.302;2024-02-21T05:59:43;99658.75;;;10.46;100.00
48652;BME280;34442;52.362;-1.302;2024-02-21T06:02:09;99655.00;;;10.47;100.00
48652;BME280;34442;52.362;-1.302;2024-02-21T06:04:34;99643.59;;;10.52;100.00
48652;BME280;34442;52.362;-1.302;2024-02-21T06:07:01;99639.19;;;10.39;100.00
48652;BME280;34442;52.362;-1.302;2024-02-21T06:09:27;99632.94;;;10.45;100.00
48652;BME280;34442;52.362;-1.302;2024-02-21T06:11:52;99617.44;;;10.40;100.00
48652;BME280;34442;52.362;-1.302;2024-02-21T06:14:19;99616.06;;;10.38;100.00
48652;BME280;34442;52.362;-1.302;2024-02-21T06:16:44;99608.94;;;10.43;100.00
48652;BME280;34442;52.362;-1.302;2024-02-21T06:19:10;99605.50;;;10.36;100.00
48652;BME280;34442;52.362;-1.302;2024-02-21T06:21:36;99593.06;;;10.42;100.00
48652;BME280;34442;52.362;-1.302;2024-02-21T06:24:01;99566.09;;;10.49;100.00
48652;BME280;34442;52.362;-1.302;2024-02-21T06:26:26;99567.00;;;10.42;100.00
48652;BME280;34442;52.362;-1.302;2024-02-21T06:28:52;99562.81;;;10.47;100.00
48652;BME280;34442;52.362;-1.302;2024-02-21T06:31:17;99542.59;;;10.44;100.00
48652;BME280;34442;52.362;-1.302;2024-02-21T06:33:43;99539.50;;;10.29;100.00
48652;BME280;34442;52.362;-1.302;2024-02-21T06:36:08;99541.63;;;10.38;100.00
48652;BME280;34442;52.362;-1.302;2024-02-21T06:38:33;99541.19;;;10.41;100.00
48652;BME280;34442;52.362;-1.302;2024-02-21T06:40:59;99530.81;;;10.27;100.00
48652;BME280;34442;52.362;-1.302;2024-02-21T06:43:25;99528.19;;;10.38;100.00
48652;BME280;34442;52.362;-1.302;2024-02-21T06:45:51;99512.66;;;10.40;100.00
48652;BME280;34442;52.362;-1.302;2024-02-21T06:48:17;99509.53;;;10.43;100.00
48652;BME280;34442;52.362;-1.302;2024-02-21T06:50:43;99506.16;;;10.48;100.00
48652;BME280;34442;52.362;-1.302;2024-02-21T06:53:09;99489.81;;;10.50;100.00
48652;BME280;34442;52.362;-1.302;2024-02-21T06:55:35;99491.09;;;10.47;100.00
48652;BME280;34442;52.362;-1.302;2024-02-21T06:58:00;99477.41;;;10.49;100.00
48652;BME280;34442;52.362;-1.302;2024-02-21T07:00:28;99467.34;;;10.44;100.00
48652;BME280;34442;52.362;-1.302;2024-02-21T07:02:53;99465.03;;;10.48;100.00
48652;BME280;34442;52.362;-1.302;2024-02-21T07:05:19;99456.47;;;10.39;100.00
48652;BME280;34442;52.362;-1.302;2024-02-21T07:07:44;99449.03;;;10.23;100.00
48652;BME280;34442;52.362;-1.302;2024-02-21T07:10:10;99448.00;;;10.54;100.00
48652;BME280;34442;52.362;-1.302;2024-02-21T07:12:36;99444.59;;;10.47;100.00
48652;BME280;34442;52.362;-1.302;2024-02-21T07:15:04;99439.59;;;10.50;100.00
48652;BME280;34442;52.362;-1.302;2024-02-21T07:17:30;99427.75;;;10.39;100.00
48652;BME280;34442;52.362;-1.302;2024-02-21T07:19:55;99435.59;;;10.53;100.00
48652;BME280;34442;52.362;-1.302;2024-02-21T07:22:25;99425.00;;;10.58;100.00
48652;BME280;34442;52.362;-1.302;2024-02-21T07:24:50;99405.22;;;10.52;100.00
48652;BME280;34442;52.362;-1.302;2024-02-21T07:27:16;99398.91;;;10.47;100.00
48652;BME280;34442;52.362;-1.302;2024-02-21T07:29:41;99397.03;;;10.47;100.00
48652;BME280;34442;52.362;-1.302;2024-02-21T07:32:07;99383.50;;;10.54;100.00
48652;BME280;34442;52.362;-1.302;2024-02-21T07:34:32;99379.78;;;10.55;100.00
48652;BME280;34442;52.362;-1.302;2024-02-21T07:36:57;99370.66;;;10.56;100.00
48652;BME280;34442;52.362;-1.302;2024-02-21T07:39:23;99363.31;;;10.63;100.00
48652;BME280;34442;52.362;-1.302;2024-02-21T07:41:48;99356.19;;;10.68;100.00
48652;BME280;34442;52.362;-1.302;2024-02-21T07:44:15;99344.50;;;10.63;100.00
48652;BME280;34442;52.362;-1.302;2024-02-21T07:46:40;99346.47;;;10.67;100.00
48652;BME280;34442;52.362;-1.302;2024-02-21T07:49:06;99341.56;;;10.64;100.00
48652;BME280;34442;52.362;-1.302;2024-02-21T07:51:31;99337.00;;;10.65;100.00
48652;BME280;34442;52.362;-1.302;2024-02-21T07:53:57;99334.31;;;10.65;100.00
48652;BME280;34442;52.362;-1.302;2024-02-21T07:56:22;99326.50;;;10.63;100.00
48652;BME280;34442;52.362;-1.302;2024-02-21T07:58:48;99314.81;;;10.46;100.00
48652;BME280;34442;52.362;-1.302;2024-02-21T08:01:18;99316.31;;;10.65;100.00
48652;BME280;34442;52.362;-1.302;2024-02-21T08:03:47;99306.50;;;10.59;100.00
48652;BME280;34442;52.362;-1.302;2024-02-21T08:06:13;99306.16;;;10.67;100.00
48652;BME280;34442;52.362;-1.302;2024-02-21T08:08:42;99287.25;;;10.62;100.00
48652;BME280;34442;52.362;-1.302;2024-02-21T08:11:07;99288.97;;;10.68;100.00
48652;BME280;34442;52.362;-1.302;2024-02-21T08:13:32;99292.25;;;10.71;100.00
48652;BME280;34442;52.362;-1.302;2024-02-21T08:15:58;99283.94;;;10.60;100.00
48652;BME280;34442;52.362;-1.302;2024-02-21T08:18:23;99276.25;;;10.64;100.00
48652;BME280;34442;52.362;-1.302;2024-02-21T08:20:48;99278.69;;;10.65;100.00
48652;BME280;34442;52.362;-1.302;2024-02-21T08:23:18;99263.16;;;10.67;100.00
48652;BME280;34442;52.362;-1.302;2024-02-21T08:25:44;99260.22;;;10.57;100.00
48652;BME280;34442;52.362;-1.302;2024-02-21T08:28:09;99246.22;;;10.55;100.00
48652;BME280;34442;52.362;-1.302;2024-02-21T08:30:34;99232.53;;;10.57;100.00
48652;BME280;34442;52.362;-1.302;2024-02-21T08:33:00;99234.41;;;10.68;100.00
48652;BME280;34442;52.362;-1.302;2024-02-21T08:35:26;99225.53;;;10.67;100.00
48652;BME280;34442;52.362;-1.302;2024-02-21T08:37:51;99227.97;;;10.69;100.00
48652;BME280;34442;52.362;-1.302;2024-02-21T08:40:17;99226.09;;;10.69;100.00
48652;BME280;34442;52.362;-1.302;2024-02-21T08:42:44;99221.78;;;10.68;100.00
48652;BME280;34442;52.362;-1.302;2024-02-21T08:45:10;99209.28;;;10.74;100.00
48652;BME280;34442;52.362;-1.302;2024-02-21T08:47:36;99207.78;;;10.66;100.00
48652;BME280;34442;52.362;-1.302;2024-02-21T08:50:02;99195.97;;;10.67;100.00
48652;BME280;34442;52.362;-1.302;2024-02-21T08:52:28;99197.84;;;10.67;100.00
48652;BME280;34442;52.362;-1.302;2024-02-21T08:54:53;99193.28;;;10.44;100.00
48652;BME280;34442;52.362;-1.302;2024-02-21T08:57:19;99188.53;;;10.46;100.00
48652;BME280;34442;52.362;-1.302;2024-02-21T08:59:44;99184.06;;;10.40;100.00
48652;BME280;34442;52.362;-1.302;2024-02-21T09:02:10;99172.50;;;10.39;100.00
48652;BME280;34442;52.362;-1.302;2024-02-21T09:04:35;99162.22;;;10.48;100.00
48652;BME280;34442;52.362;-1.302;2024-02-21T09:07:01;99159.44;;;10.43;100.00
48652;BME280;34442;52.362;-1.302;2024-02-21T09:09:26;99150.81;;;10.41;100.00
48652;BME280;34442;52.362;-1.302;2024-02-21T09:11:54;99132.56;;;10.43;100.00
48652;BME280;34442;52.362;-1.302;2024-02-21T09:14:20;99123.94;;;10.41;100.00
48652;BME280;34442;52.362;-1.302;2024-02-21T09:16:46;99129.44;;;10.34;100.00
48652;BME280;34442;52.362;-1.302;2024-02-21T09:19:12;99116.34;;;10.38;100.00
48652;BME280;34442;52.362;-1.302;2024-02-21T09:21:38;99110.38;;;10.36;100.00
48652;BME280;34442;52.362;-1.302;2024-02-21T09:24:05;99105.44;;;10.44;100.00
48652;BME280;34442;52.362;-1.302;2024-02-21T09:26:31;99091.66;;;10.53;100.00
48652;BME280;34442;52.362;-1.302;2024-02-21T09:28:57;99098.75;;;10.59;100.00
48652;BME280;34442;52.362;-1.302;2024-02-21T09:31:23;99084.69;;;10.68;100.00
48652;BME280;34442;52.362;-1.302;2024-02-21T09:33:50;99091.94;;;10.68;100.00
48652;BME280;34442;52.362;-1.302;2024-02-21T09:36:15;99069.16;;;10.71;100.00
48652;BME280;34442;52.362;-1.302;2024-02-21T09:38:41;99063.44;;;10.67;100.00
48652;BME280;34442;52.362;-1.302;2024-02-21T09:41:16;99035.25;;;10.69;100.00
48652;BME280;34442;52.362;-1.302;2024-02-21T09:43:43;99036.59;;;10.27;100.00
48652;BME280;34442;52.362;-1.302;2024-02-21T09:46:16;99033.63;;;9.88;100.00
48652;BME280;34442;52.362;-1.302;2024-02-21T09:51:16;99023.94;;;9.75;100.00
48652;BME280;34442;52.362;-1.302;2024-02-21T09:53:43;99026.84;;;9.74;100.00
48652;BME280;34442;52.362;-1.302;2024-02-21T09:56:10;99010.63;;;10.32;100.00
48652;BME280;34442;52.362;-1.302;2024-02-21T09:58:36;99003.72;;;10.65;100.00
48652;BME280;34442;52.362;-1.302;2024-02-21T10:01:02;98992.13;;;10.76;100.00
48652;BME280;34442;52.362;-1.302;2024-02-21T10:03:32;98983.38;;;10.69;100.00
48652;BME280;34442;52.362;-1.302;2024-02-21T10:05:58;98977.44;;;10.67;100.00
48652;BME280;34442;52.362;-1.302;2024-02-21T10:08:26;98964.97;;;10.61;100.00
48652;BME280;34442;52.362;-1.302;2024-02-21T10:10:52;98949.50;;;10.68;100.00
48652;BME280;34442;52.362;-1.302;2024-02-21T10:16:03;98932.97;;;10.76;100.00
48652;BME280;34442;52.362;-1.302;2024-02-21T10:18:29;98923.78;;;10.72;100.00
48652;BME280;34442;52.362;-1.302;2024-02-21T10:21:05;98922.31;;;10.81;100.00
48652;BME280;34442;52.362;-1.302;2024-02-21T10:23:45;98910.25;;;10.67;100.00
48652;BME280;34442;52.362;-1.302;2024-02-21T10:26:11;98894.94;;;10.67;100.00
48652;BME280;34442;52.362;-1.302;2024-02-21T10:28:37;98882.91;;;10.70;100.00
48652;BME280;34442;52.362;-1.302;2024-02-21T10:31:07;98869.47;;;10.70;100.00
48652;BME280;34442;52.362;-1.302;2024-02-21T10:33:33;98870.69;;;10.79;100.00
48652;BME280;34442;52.362;-1.302;2024-02-21T10:36:08;98860.00;;;10.84;100.00
48652;BME280;34442;52.362;-1.302;2024-02-21T10:38:36;98865.03;;;10.81;100.00
48652;BME280;34442;52.362;-1.302;2024-02-21T10:41:03;98849.56;;;10.88;100.00
48652;BME280;34442;52.362;-1.302;2024-02-21T10:43:37;98839.66;;;10.72;100.00
48652;BME280;34442;52.362;-1.302;2024-02-21T10:46:05;98846.25;;;10.64;100.00
48652;BME280;34442;52.362;-1.302;2024-02-21T10:48:38;98827.66;;;10.79;100.00
48652;BME280;34442;52.362;-1.302;2024-02-21T10:51:17;98825.03;;;10.84;100.00
48652;BME280;34442;52.362;-1.302;2024-02-21T10:56:31;98821.81;;;10.82;100.00
48652;BME280;34442;52.362;-1.302;2024-02-21T10:59:01;98815.84;;;10.80;100.00
48652;BME280;34442;52.362;-1.302;2024-02-21T11:01:28;98803.53;;;10.84;100.00
48652;BME280;34442;52.362;-1.302;2024-02-21T11:06:24;98800.59;;;10.86;100.00
48652;BME280;34442;52.362;-1.302;2024-02-21T11:09:19;98795.13;;;10.98;100.00
48652;BME280;34442;52.362;-1.302;2024-02-21T11:11:55;98785.91;;;10.21;100.00
48652;BME280;34442;52.362;-1.302;2024-02-21T11:14:21;98774.81;;;10.68;100.00
48652;BME280;34442;52.362;-1.302;2024-02-21T11:16:47;98766.50;;;10.86;100.00
48652;BME280;34442;52.362;-1.302;2024-02-21T11:19:24;98768.22;;;10.98;100.00
48652;BME280;34442;52.362;-1.302;2024-02-21T11:21:51;98757.41;;;10.92;100.00
48652;BME280;34442;52.362;-1.302;2024-02-21T11:24:30;98741.22;;;11.09;100.00
48652;BME280;34442;52.362;-1.302;2024-02-21T11:27:16;98734.28;;;10.91;100.00
48652;BME280;34442;52.362;-1.302;2024-02-21T11:29:48;98734.78;;;10.88;100.00
48652;BME280;34442;52.362;-1.302;2024-02-21T11:32:17;98740.47;;;10.92;100.00
48652;BME280;34442;52.362;-1.302;2024-02-21T11:35:00;98723.31;;;10.98;100.00
48652;BME280;34442;52.362;-1.302;2024-02-21T11:37:34;98716.66;;;11.01;100.00
48652;BME280;34442;52.362;-1.302;2024-02-21T11:40:03;98706.91;;;10.95;100.00
48652;BME280;34442;52.362;-1.302;2024-02-21T11:42:29;98702.28;;;11.12;100.00
48652;BME280;34442;52.362;-1.302;2024-02-21T11:44:55;98692.69;;;11.21;100.00
48652;BME280;34442;52.362;-1.302;2024-02-21T11:47:24;98680.97;;;11.32;100.00
48652;BME280;34442;52.362;-1.302;2024-02-21T11:49:50;98682.09;;;11.36;100.00
48652;BME280;34442;52.362;-1.302;2024-02-21T11:52:21;98676.19;;;11.39;100.00
48652;BME280;34442;52.362;-1.302;2024-02-21T11:54:48;98668.56;;;11.31;100.00
48652;BME280;34442;52.362;-1.302;2024-02-21T11:57:13;98671.81;;;11.33;100.00
48652;BME280;34442;52.362;-1.302;2024-02-21T11:59:40;98659.69;;;11.31;100.00
48652;BME280;34442;52.362;-1.302;2024-02-21T12:02:06;98650.19;;;11.23;100.00
48652;BME280;34442;52.362;-1.302;2024-02-21T12:04:32;98640.31;;;11.29;100.00
48652;BME280;34442;52.362;-1.302;2024-02-21T12:06:59;98634.97;;;11.34;100.00
48652;BME280;34442;52.362;-1.302;2024-02-21T12:09:25;98620.44;;;11.35;100.00
48652;BME280;34442;52.362;-1.302;2024-02-21T12:11:58;98618.56;;;11.35;100.00
48652;BME280;34442;52.362;-1.302;2024-02-21T12:14:24;98605.53;;;11.49;100.00
48652;BME280;34442;52.362;-1.302;2024-02-21T12:16:50;98605.22;;;11.46;100.00
48652;BME280;34442;52.362;-1.302;2024-02-21T12:19:16;98590.44;;;11.48;100.00
48652;BME280;34442;52.362;-1.302;2024-02-21T12:21:42;98592.59;;;11.51;100.00
48652;BME280;34442;52.362;-1.302;2024-02-21T12:24:12;98577.34;;;11.57;100.00
48652;BME280;34442;52.362;-1.302;2024-02-21T12:26:38;98559.00;;;11.54;100.00
48652;BME280;34442;52.362;-1.302;2024-02-21T12:29:03;98560.31;;;11.51;100.00
48652;BME280;34442;52.362;-1.302;2024-02-21T12:31:28;98538.25;;;11.49;100.00
48652;BME280;34442;52.362;-1.302;2024-02-21T12:33:54;98536.88;;;11.47;100.00
48652;BME280;34442;52.362;-1.302;2024-02-21T12:36:20;98540.66;;;11.51;100.00
48652;BME280;34442;52.362;-1.302;2024-02-21T12:38:45;98522.84;;;10.80;100.00
48652;BME280;34442;52.362;-1.302;2024-02-21T12:41:14;98525.34;;;10.60;100.00
48652;BME280;34442;52.362;-1.302;2024-02-21T12:43:39;98517.09;;;11.31;100.00
48652;BME280;34442;52.362;-1.302;2024-02-21T12:46:05;98489.50;;;11.46;100.00